Time;durP1;ratioP1;P1;durP2;ratioP2;P2;SDS_P1;SDS_P2;PMS_P1;PMS_P2;Temp;Humidity;BMP_temperature;BMP_pressure;BME280_temperature;BME280_humidity;BME280_pressure;Samples;Min_cycle;Max_cycle;Signal;HPM_P1;HPM_P2
2022/12/26 00:01:59;;;;;;;47.70;20.55;;;9.70;99.90;;;;;;5035199;28;20180;-77
2022/12/26 00:04:24;;;;;;;49.65;20.02;;;9.70;99.90;;;;;;5034577;28;20313;-77
2022/12/26 00:06:50;;;;;;;50.42;20.63;;;9.70;99.90;;;;;;5017100;28;20259;-78
2022/12/26 00:09:16;;;;;;;50.17;19.92;;;9.70;99.90;;;;;;5034522;28;20238;-78
2022/12/26 00:11:42;;;;;;;43.75;18.85;;;9.70;99.90;;;;;;5034160;28;20203;-78
2022/12/26 00:14:12;;;;;;;48.05;20.05;;;9.70;99.90;;;;;;5048308;28;20186;-77
2022/12/26 00:16:43;;;;;;;48.85;20.48;;;9.60;99.90;;;;;;5035110;28;20215;-77
2022/12/26 00:19:10;;;;;;;52.00;20.65;;;9.70;99.90;;;;;;5034244;28;20172;-78
2022/12/26 00:21:35;;;;;;;48.15;20.30;;;9.70;99.90;;;;;;5030057;28;20666;-77
2022/12/26 00:24:02;;;;;;;46.55;20.33;;;9.70;99.90;;;;;;5034306;28;20267;-79
2022/12/26 00:26:29;;;;;;;47.90;20.67;;;9.70;99.90;;;;;;5035425;28;20191;-77
2022/12/26 00:28:56;;;;;;;53.17;21.05;;;9.70;99.90;;;;;;5034325;28;20267;-76
2022/12/26 00:31:28;;;;;;;49.25;20.63;;;9.70;99.90;;;;;;5032619;28;20250;-77
2022/12/26 00:33:54;;;;;;;54.40;20.85;;;9.70;99.90;;;;;;5035202;28;20173;-76
2022/12/26 00:36:28;;;;;;;51.40;21.67;;;9.70;99.90;;;;;;5031972;28;20180;-76
2022/12/26 00:38:55;;;;;;;51.53;20.00;;;9.70;99.90;;;;;;5035143;28;20164;-77
2022/12/26 00:41:21;;;;;;;49.78;20.15;;;9.70;99.90;;;;;;5032248;28;20184;-80
2022/12/26 00:43:48;;;;;;;50.22;20.25;;;9.70;99.90;;;;;;5035381;28;20271;-76
2022/12/26 00:46:14;;;;;;;49.03;20.45;;;9.70;99.90;;;;;;5033654;28;20187;-76
2022/12/26 00:48:40;;;;;;;46.10;20.48;;;9.70;99.90;;;;;;5033359;28;20266;-77
2022/12/26 00:51:06;;;;;;;47.53;20.02;;;9.70;99.90;;;;;;5033457;28;20311;-76
2022/12/26 00:53:33;;;;;;;45.67;19.67;;;9.70;99.90;;;;;;5033339;28;20519;-76
2022/12/26 00:55:58;;;;;;;48.60;19.55;;;9.70;99.90;;;;;;5032636;28;20203;-76
2022/12/26 00:58:24;;;;;;;49.88;19.85;;;9.70;99.90;;;;;;5038706;28;20658;-77
2022/12/26 01:00:52;;;;;;;47.72;19.70;;;9.70;99.90;;;;;;5043957;28;20259;-77
2022/12/26 01:03:18;;;;;;;55.30;20.95;;;9.70;99.90;;;;;;5039574;28;20171;-77
2022/12/26 01:05:46;;;;;;;47.78;20.63;;;9.70;99.90;;;;;;5038835;28;20231;-76
2022/12/26 01:08:14;;;;;;;48.47;20.17;;;9.70;99.90;;;;;;5033542;28;20226;-77
2022/12/26 01:10:41;;;;;;;50.05;20.73;;;9.60;99.90;;;;;;5033508;28;20192;-77
2022/12/26 01:13:08;;;;;;;50.42;19.98;;;9.70;99.90;;;;;;5046200;28;20219;-76
2022/12/26 01:15:33;;;;;;;56.80;21.20;;;9.70;99.90;;;;;;5032620;28;20632;-76
2022/12/26 01:18:00;;;;;;;64.05;21.65;;;9.70;99.90;;;;;;5065622;28;20191;-76
2022/12/26 01:20:26;;;;;;;55.22;21.50;;;9.70;99.90;;;;;;5022697;28;20184;-78
2022/12/26 01:22:52;;;;;;;59.72;21.30;;;9.70;99.90;;;;;;5033602;28;20188;-77
2022/12/26 01:25:18;;;;;;;55.20;21.83;;;9.70;99.90;;;;;;5032331;28;20524;-77
2022/12/26 01:27:44;;;;;;;57.05;21.30;;;9.70;99.90;;;;;;5034166;28;20681;-77
2022/12/26 01:30:10;;;;;;;56.47;21.85;;;9.70;99.90;;;;;;5032929;28;20184;-76
2022/12/26 01:32:36;;;;;;;59.30;21.85;;;9.70;99.90;;;;;;5028086;28;20668;-77
2022/12/26 01:35:02;;;;;;;62.42;23.73;;;9.70;99.90;;;;;;5032161;28;20187;-77
2022/12/26 01:37:27;;;;;;;59.00;22.23;;;9.70;99.90;;;;;;5032101;28;20284;-76
2022/12/26 01:39:53;;;;;;;60.22;22.67;;;9.70;99.90;;;;;;5033789;28;20184;-76
2022/12/26 01:42:23;;;;;;;57.80;21.48;;;9.70;99.90;;;;;;5048132;28;20215;-76
2022/12/26 01:45:22;;;;;;;59.53;21.67;;;9.70;99.90;;;;;;5033231;28;20176;-76
2022/12/26 01:47:57;;;;;;;57.28;22.23;;;9.70;99.90;;;;;;5033954;28;20175;-76
2022/12/26 01:50:47;;;;;;;57.65;21.88;;;9.70;99.90;;;;;;5032759;28;20293;-76
2022/12/26 01:53:36;;;;;;;50.53;21.05;;;9.70;99.90;;;;;;5033883;28;20263;-77
2022/12/26 01:56:07;;;;;;;54.50;20.02;;;9.70;99.90;;;;;;5030405;28;20191;-76
2022/12/26 01:58:37;;;;;;;61.03;21.75;;;9.70;99.90;;;;;;5061630;28;20219;-77
2022/12/26 02:01:05;;;;;;;60.30;21.50;;;9.70;99.90;;;;;;5031983;28;20210;-76
2022/12/26 02:06:16;;;;;;;56.00;20.65;;;9.60;99.90;;;;;;5035065;28;20198;-76
2022/12/26 02:08:44;;;;;;;50.30;19.83;;;9.60;99.90;;;;;;5041511;28;20655;-77
2022/12/26 02:11:21;;;;;;;54.90;20.83;;;9.60;99.90;;;;;;5029904;28;20211;-76
2022/12/26 02:13:47;;;;;;;49.72;20.08;;;9.60;99.90;;;;;;5032292;28;20222;-76
2022/12/26 02:16:15;;;;;;;51.90;20.20;;;9.60;99.90;;;;;;5031251;28;20572;-76
2022/12/26 02:18:41;;;;;;;49.05;19.70;;;9.60;99.90;;;;;;5032240;28;20174;-76
2022/12/26 02:21:18;;;;;;;47.42;19.50;;;9.60;99.90;;;;;;5030774;28;20188;-76
2022/12/26 02:23:59;;;;;;;39.15;17.08;;;9.60;99.90;;;;;;5019871;28;20205;-76
2022/12/26 02:26:27;;;;;;;38.28;17.60;;;9.60;99.90;;;;;;5028414;28;20699;-75
2022/12/26 02:29:29;;;;;;;39.60;17.52;;;9.60;99.90;;;;;;5032651;28;20207;-75
2022/12/26 02:32:04;;;;;;;40.63;17.45;;;9.60;99.90;;;;;;5022769;28;20191;-75
2022/12/26 02:34:49;;;;;;;42.60;18.15;;;9.60;99.90;;;;;;5029644;28;20179;-76
2022/12/26 02:37:23;;;;;;;42.28;17.15;;;9.60;99.90;;;;;;5032145;28;20526;-76
2022/12/26 02:40:07;;;;;;;42.17;17.88;;;9.60;99.90;;;;;;5028573;28;20231;-76
2022/12/26 02:42:35;;;;;;;42.88;17.75;;;9.60;99.90;;;;;;5045591;28;20223;-77
2022/12/26 02:48:14;;;;;;;42.40;18.10;;;9.60;99.90;;;;;;5017489;28;20259;-76
2022/12/26 03:14:18;;;;;;;37.95;18.80;;;9.60;99.90;;;;;;5030413;28;20187;-76
2022/12/26 03:19:36;;;;;;;37.88;20.45;;;9.70;99.90;;;;;;5019716;28;20176;-75
2022/12/26 03:22:29;;;;;;;38.97;20.38;;;9.60;99.90;;;;;;5018692;28;20265;-76
2022/12/26 03:27:36;;;;;;;37.55;21.45;;;9.60;99.90;;;;;;5020071;28;20221;-76
2022/12/26 03:32:46;;;;;;;41.45;23.08;;;9.70;99.90;;;;;;5036137;28;20208;-76
2022/12/26 03:35:14;;;;;;;43.17;24.45;;;9.70;99.90;;;;;;5035068;28;20521;-75
2022/12/26 03:37:55;;;;;;;43.00;23.80;;;9.70;99.90;;;;;;5033705;28;20731;-76
2022/12/26 04:20:07;;;;;;;53.25;27.75;;;9.80;99.90;;;;;;5043501;28;20210;-77
2022/12/26 04:45:51;;;;;;;54.95;27.15;;;9.90;99.90;;;;;;5033791;28;20636;-76
2022/12/26 04:51:03;;;;;;;53.85;27.55;;;9.90;99.90;;;;;;5009437;28;20231;-82
2022/12/26 04:53:29;;;;;;;47.13;25.92;;;9.90;99.90;;;;;;5049722;28;20179;-76
2022/12/26 04:55:55;;;;;;;53.50;27.55;;;9.90;99.90;;;;;;5048945;28;20188;-77
2022/12/26 04:58:23;;;;;;;48.72;26.40;;;9.90;99.90;;;;;;5033971;28;20593;-76
2022/12/26 05:00:49;;;;;;;46.30;26.83;;;9.90;99.90;;;;;;5032375;28;20234;-77
2022/12/26 05:11:34;;;;;;;46.88;26.27;;;9.90;99.90;;;;;;5034179;28;20207;-77
2022/12/26 05:14:00;;;;;;;50.17;26.70;;;9.90;99.90;;;;;;5031015;28;20515;-82
2022/12/26 05:30:22;;;;;;;49.17;26.70;;;9.90;99.90;;;;;;5033107;28;20210;-79
2022/12/26 05:35:34;;;;;;;50.00;26.15;;;9.90;99.90;;;;;;5038066;28;20211;-79
2022/12/26 05:38:00;;;;;;;45.50;26.88;;;9.90;99.90;;;;;;5033262;28;20632;-76
2022/12/26 05:40:25;;;;;;;45.83;26.20;;;9.90;99.90;;;;;;5032722;28;20195;-76
2022/12/26 05:42:51;;;;;;;43.58;26.55;;;9.90;99.90;;;;;;5046068;28;20184;-77
2022/12/26 05:45:17;;;;;;;43.33;27.30;;;9.90;99.90;;;;;;5028777;28;20644;-76
2022/12/26 05:47:43;;;;;;;45.28;26.58;;;9.90;99.90;;;;;;5033377;28;20249;-77
2022/12/26 05:50:09;;;;;;;46.65;27.77;;;9.90;99.90;;;;;;5031346;28;20176;-76
2022/12/26 05:52:34;;;;;;;46.17;28.27;;;9.90;99.90;;;;;;5065203;28;20220;-77
2022/12/26 05:55:00;;;;;;;40.85;27.35;;;9.80;99.90;;;;;;5038909;28;20640;-76
2022/12/26 05:57:26;;;;;;;43.83;26.42;;;9.80;99.90;;;;;;5032468;28;20603;-77
2022/12/26 05:59:52;;;;;;;43.20;27.38;;;9.80;99.90;;;;;;5032264;28;20231;-77
2022/12/26 06:02:17;;;;;;;44.10;26.70;;;9.80;99.90;;;;;;5046972;28;20249;-78
2022/12/26 06:04:43;;;;;;;38.35;25.10;;;9.80;99.90;;;;;;5047410;28;20274;-76
2022/12/26 06:07:09;;;;;;;43.22;26.77;;;9.80;99.90;;;;;;5033097;28;20180;-77
2022/12/26 06:09:35;;;;;;;45.20;27.63;;;9.80;99.90;;;;;;5028168;28;20189;-77
2022/12/26 06:12:00;;;;;;;44.03;27.85;;;9.80;99.90;;;;;;5028122;28;20215;-77
2022/12/26 06:14:26;;;;;;;46.28;28.27;;;9.80;99.90;;;;;;5033148;28;20183;-76
2022/12/26 06:16:52;;;;;;;45.40;27.63;;;9.80;99.90;;;;;;5033133;28;20182;-77
2022/12/26 06:19:18;;;;;;;43.17;26.73;;;9.80;99.90;;;;;;5029871;28;20179;-76
2022/12/26 06:21:43;;;;;;;42.53;28.33;;;9.80;99.90;;;;;;5032186;28;20272;-77
2022/12/26 06:24:09;;;;;;;41.92;27.42;;;9.80;99.90;;;;;;5032314;28;20208;-77
2022/12/26 06:26:36;;;;;;;44.28;28.13;;;9.80;99.90;;;;;;5062818;28;20187;-77
2022/12/26 06:29:02;;;;;;;42.47;27.23;;;9.80;99.90;;;;;;5030767;28;20659;-78
2022/12/26 06:31:28;;;;;;;38.83;26.50;;;9.80;99.90;;;;;;5031759;28;20215;-78
2022/12/26 06:34:00;;;;;;;35.60;26.60;;;9.80;99.90;;;;;;5029916;28;20655;-77
2022/12/26 06:36:29;;;;;;;38.08;25.63;;;9.80;99.90;;;;;;5032350;28;20188;-77
2022/12/26 06:38:56;;;;;;;43.80;25.77;;;9.80;99.90;;;;;;5035351;28;20632;-76
2022/12/26 06:41:24;;;;;;;36.45;24.70;;;9.80;99.90;;;;;;5031500;28;20179;-76
2022/12/26 06:43:50;;;;;;;38.92;23.95;;;9.80;99.90;;;;;;5047023;28;20180;-77
2022/12/26 06:46:18;;;;;;;36.15;23.88;;;9.80;99.90;;;;;;5030455;28;20180;-76
2022/12/26 06:48:44;;;;;;;35.05;23.63;;;9.80;99.90;;;;;;5025894;28;20697;-78
2022/12/26 06:51:13;;;;;;;36.97;23.70;;;9.80;99.90;;;;;;5028979;28;20208;-77
2022/12/26 06:53:39;;;;;;;35.45;22.55;;;9.80;99.90;;;;;;5031526;28;20226;-77
2022/12/26 06:56:07;;;;;;;32.97;22.15;;;9.80;99.90;;;;;;5035699;28;20199;-77
2022/12/26 06:58:33;;;;;;;40.83;23.90;;;9.80;99.90;;;;;;5048306;28;20370;-76
2022/12/26 07:01:09;;;;;;;29.67;20.77;;;9.80;99.90;;;;;;5036972;28;20223;-76
2022/12/26 07:03:35;;;;;;;33.05;21.38;;;9.80;99.90;;;;;;5039425;28;20941;-77
2022/12/26 07:06:06;;;;;;;32.83;21.73;;;9.80;99.90;;;;;;5042559;28;20175;-76
2022/12/26 07:08:32;;;;;;;34.95;21.42;;;9.80;99.90;;;;;;5038729;28;20168;-77
2022/12/26 07:10:59;;;;;;;28.38;19.67;;;9.80;99.90;;;;;;5038427;28;20238;-77
2022/12/26 07:13:25;;;;;;;31.67;20.58;;;9.80;99.90;;;;;;5038075;28;20241;-77
2022/12/26 07:15:50;;;;;;;36.60;20.58;;;9.80;99.90;;;;;;5036291;28;20188;-76
2022/12/26 07:18:16;;;;;;;30.65;19.27;;;9.80;99.90;;;;;;5038963;28;20191;-78
2022/12/26 07:20:42;;;;;;;29.38;19.25;;;9.80;99.90;;;;;;5037790;28;20184;-76
2022/12/26 07:23:08;;;;;;;31.73;19.38;;;9.80;99.90;;;;;;5033582;28;21358;-79
2022/12/26 07:25:38;;;;;;;28.90;19.20;;;9.90;99.90;;;;;;5035738;28;20577;-76
2022/12/26 07:28:05;;;;;;;29.45;18.63;;;9.90;99.90;;;;;;5037404;28;20258;-77
2022/12/26 07:30:31;;;;;;;35.35;19.02;;;9.90;99.90;;;;;;5036005;28;20259;-76
2022/12/26 07:32:56;;;;;;;30.30;18.42;;;9.90;99.90;;;;;;5032436;28;20207;-76
2022/12/26 07:35:22;;;;;;;32.60;18.75;;;9.90;99.90;;;;;;5030629;28;20583;-81
2022/12/26 07:37:48;;;;;;;26.05;17.95;;;9.90;99.90;;;;;;5052477;28;20236;-76
2022/12/26 07:40:13;;;;;;;23.52;16.85;;;9.90;99.90;;;;;;5033499;28;20326;-81
2022/12/26 07:42:39;;;;;;;25.60;17.05;;;9.90;99.90;;;;;;5029786;28;20184;-76
2022/12/26 07:45:06;;;;;;;25.20;16.13;;;9.90;99.90;;;;;;5035364;28;20180;-76
2022/12/26 07:47:32;;;;;;;25.05;13.68;;;9.90;99.90;;;;;;5023651;28;21796;-76
2022/12/26 07:49:57;;;;;;;23.02;15.32;;;9.90;99.90;;;;;;5025605;28;20188;-77
2022/12/26 07:52:23;;;;;;;21.83;14.43;;;9.90;99.90;;;;;;5074564;28;20235;-76
2022/12/26 07:54:49;;;;;;;24.98;15.38;;;9.90;99.90;;;;;;5039773;28;20180;-76
2022/12/26 07:57:15;;;;;;;22.60;14.23;;;9.90;99.90;;;;;;5038521;28;20184;-76
2022/12/26 07:59:41;;;;;;;23.08;14.32;;;9.90;99.90;;;;;;5019858;28;20220;-78
2022/12/26 08:02:09;;;;;;;25.25;14.25;;;9.90;99.90;;;;;;5024730;28;20233;-81
2022/12/26 08:04:35;;;;;;;22.75;13.98;;;9.90;99.90;;;;;;5032479;28;20540;-77
2022/12/26 08:07:00;;;;;;;24.58;14.65;;;9.90;99.90;;;;;;5036018;28;20322;-76
2022/12/26 08:09:26;;;;;;;26.42;14.93;;;9.80;99.90;;;;;;5033487;28;20172;-76
2022/12/26 08:11:52;;;;;;;24.90;14.05;;;9.90;99.90;;;;;;5039889;28;20215;-80
2022/12/26 08:14:18;;;;;;;22.63;14.10;;;9.90;99.90;;;;;;5048861;28;20184;-76
2022/12/26 08:16:44;;;;;;;22.35;13.00;;;9.80;99.90;;;;;;5032492;28;20223;-76
2022/12/26 08:19:10;;;;;;;19.08;12.50;;;9.90;99.90;;;;;;5035126;28;20187;-76
2022/12/26 08:21:36;;;;;;;20.65;12.60;;;9.90;99.90;;;;;;5021174;28;20184;-76
2022/12/26 08:24:02;;;;;;;17.70;12.05;;;9.90;99.90;;;;;;5020199;28;20249;-77
2022/12/26 08:26:28;;;;;;;18.70;12.15;;;9.90;99.90;;;;;;5034408;28;20188;-76
2022/12/26 08:28:55;;;;;;;19.33;11.75;;;9.90;99.90;;;;;;5033566;28;20180;-77
2022/12/26 08:31:21;;;;;;;18.42;11.93;;;9.90;99.90;;;;;;5049850;28;20191;-77
2022/12/26 08:33:47;;;;;;;20.90;12.13;;;9.90;99.90;;;;;;5035385;28;20172;-76
2022/12/26 08:36:16;;;;;;;22.48;11.70;;;9.90;99.90;;;;;;5020073;28;20836;-76
2022/12/26 08:38:42;;;;;;;20.27;11.05;;;9.90;99.90;;;;;;5018711;28;20676;-76
2022/12/26 08:41:08;;;;;;;18.63;11.18;;;9.90;99.90;;;;;;5044062;28;20689;-77
2022/12/26 08:43:34;;;;;;;17.95;10.80;;;9.90;99.90;;;;;;5049845;28;20199;-76
2022/12/26 08:46:04;;;;;;;18.85;9.43;;;10.00;99.90;;;;;;5034144;28;20184;-76
2022/12/26 08:48:30;;;;;;;18.48;10.93;;;10.00;99.90;;;;;;5048764;28;20199;-76
2022/12/26 08:50:59;;;;;;;17.52;10.07;;;10.00;99.90;;;;;;5033860;28;20182;-77
2022/12/26 08:53:25;;;;;;;15.18;10.13;;;10.00;99.90;;;;;;5054371;28;20697;-77
2022/12/26 08:55:51;;;;;;;19.08;10.13;;;10.00;99.90;;;;;;5029960;28;20194;-77
2022/12/26 08:58:17;;;;;;;17.92;10.60;;;10.00;99.90;;;;;;5033609;28;20184;-78
2022/12/26 09:00:43;;;;;;;18.70;10.27;;;10.00;99.90;;;;;;5033952;28;20691;-77
2022/12/26 09:03:08;;;;;;;17.42;10.35;;;10.00;99.90;;;;;;5028559;28;20769;-78
2022/12/26 09:05:34;;;;;;;19.65;10.20;;;10.00;99.90;;;;;;5037682;28;20711;-76
2022/12/26 09:08:00;;;;;;;20.63;11.13;;;10.00;99.90;;;;;;5043498;28;20591;-76
2022/12/26 09:10:26;;;;;;;17.83;10.65;;;9.90;99.90;;;;;;5064315;28;20214;-76
2022/12/26 09:12:51;;;;;;;19.52;11.48;;;9.90;99.90;;;;;;5066025;28;20691;-76
2022/12/26 09:15:17;;;;;;;24.13;11.55;;;10.00;99.90;;;;;;5022964;28;20569;-77
2022/12/26 09:17:43;;;;;;;17.55;9.98;;;9.90;99.90;;;;;;5014549;28;20195;-77
2022/12/26 09:20:09;;;;;;;17.90;10.80;;;9.90;99.90;;;;;;5038770;28;20184;-81
2022/12/26 09:22:50;;;;;;;14.10;10.48;;;9.90;99.90;;;;;;5044047;28;20254;-77
2022/12/26 09:25:17;;;;;;;18.65;9.80;;;9.90;99.90;;;;;;5017556;28;20187;-82
2022/12/26 09:27:43;;;;;;;20.75;10.02;;;9.90;99.90;;;;;;5045294;28;20180;-76
2022/12/26 09:30:09;;;;;;;14.73;9.20;;;9.90;99.90;;;;;;5033345;28;20176;-78
2022/12/26 09:32:35;;;;;;;15.40;9.45;;;9.90;99.90;;;;;;5049185;28;20684;-80
2022/12/26 09:35:02;;;;;;;14.13;9.50;;;9.90;99.90;;;;;;5059632;28;20185;-76
2022/12/26 09:37:27;;;;;;;16.27;8.75;;;9.90;99.90;;;;;;5025902;28;20241;-77
2022/12/26 09:39:53;;;;;;;14.85;8.35;;;9.90;99.90;;;;;;5033169;28;20184;-80
2022/12/26 09:42:46;;;;;;;15.48;8.50;;;9.90;99.90;;;;;;5033543;28;20215;-77
2022/12/26 09:45:17;;;;;;;16.15;7.43;;;9.90;99.90;;;;;;5031291;28;20639;-77
2022/12/26 09:48:08;;;;;;;16.83;5.88;;;9.90;99.90;;;;;;5014414;28;20667;-77
2022/12/26 09:50:37;;;;;;;13.35;4.82;;;9.90;99.90;;;;;;5019513;28;20192;-85
2022/12/26 09:53:04;;;;;;;16.38;5.88;;;9.90;99.90;;;;;;5029264;28;20652;-77
2022/12/26 09:55:43;;;;;;;13.70;3.53;;;9.90;99.90;;;;;;5041614;28;20184;-80
2022/12/26 09:58:25;;;;;;;16.92;3.80;;;9.90;99.90;;;;;;5033451;28;20172;-76
2022/12/26 10:00:57;;;;;;;14.77;3.08;;;9.90;99.90;;;;;;5030536;28;20223;-77
2022/12/26 10:03:24;;;;;;;18.80;3.35;;;9.80;99.90;;;;;;5031631;28;20176;-76
2022/12/26 10:06:13;;;;;;;21.17;3.00;;;9.70;99.90;;;;;;5077137;28;20631;-77
2022/12/26 10:08:57;;;;;;;14.18;2.20;;;9.70;99.90;;;;;;5029301;28;20744;-78
2022/12/26 10:11:29;;;;;;;14.23;2.67;;;9.70;99.90;;;;;;5032561;28;20916;-75
2022/12/26 10:14:25;;;;;;;16.63;3.03;;;9.70;99.90;;;;;;5029556;28;20304;-74
2022/12/26 10:17:08;;;;;;;17.60;2.63;;;9.60;99.90;;;;;;5047636;28;20172;-76
2022/12/26 10:19:40;;;;;;;16.90;2.80;;;9.60;99.90;;;;;;5044680;28;20186;-75
2022/12/26 10:22:47;;;;;;;14.60;2.25;;;9.50;99.90;;;;;;5032582;28;20643;-74
2022/12/26 10:25:23;;;;;;;19.02;2.75;;;9.50;99.90;;;;;;4968393;28;20193;-74
2022/12/26 10:27:50;;;;;;;15.82;2.72;;;9.60;99.90;;;;;;5014083;28;20759;-75
2022/12/26 10:30:34;;;;;;;13.13;2.60;;;9.70;99.90;;;;;;5025347;28;20184;-76
2022/12/26 10:33:14;;;;;;;11.50;2.78;;;9.70;99.90;;;;;;5025159;28;20266;-74
2022/12/26 10:35:43;;;;;;;17.13;3.35;;;9.70;99.90;;;;;;5028982;28;20183;-74
2022/12/26 10:38:32;;;;;;;17.80;3.00;;;9.70;99.90;;;;;;5023980;28;20600;-80
2022/12/26 10:41:12;;;;;;;17.13;2.63;;;9.70;99.90;;;;;;5030158;28;20235;-74
2022/12/26 10:43:43;;;;;;;18.80;2.70;;;9.50;99.90;;;;;;5025743;28;20207;-74
2022/12/26 10:46:43;;;;;;;13.57;2.22;;;9.50;99.90;;;;;;5050922;28;20202;-74
2022/12/26 10:49:12;;;;;;;16.00;2.30;;;9.40;99.90;;;;;;5026317;28;20172;-74
2022/12/26 10:51:38;;;;;;;11.95;2.30;;;9.30;99.90;;;;;;5032520;28;20219;-77
2022/12/26 10:54:16;;;;;;;10.98;1.90;;;9.20;99.90;;;;;;5031607;28;20188;-75
2022/12/26 10:56:44;;;;;;;6.80;1.67;;;9.20;99.90;;;;;;5022892;28;20255;-76
2022/12/26 10:59:33;;;;;;;11.23;1.70;;;9.00;99.90;;;;;;5021005;28;20327;-75
2022/12/26 11:02:15;;;;;;;8.25;1.67;;;9.00;99.90;;;;;;5026332;28;20194;-75
2022/12/26 11:05:00;;;;;;;10.77;1.75;;;8.90;99.90;;;;;;5035778;28;20180;-75
2022/12/26 11:07:31;;;;;;;8.05;1.65;;;8.80;99.90;;;;;;5031277;28;20690;-76
2022/12/26 11:09:57;;;;;;;13.73;2.17;;;8.70;99.90;;;;;;5028174;28;20180;-75
2022/12/26 11:12:41;;;;;;;9.07;1.85;;;8.70;99.90;;;;;;5033408;28;20207;-75
2022/12/26 11:15:21;;;;;;;14.32;1.90;;;8.60;99.90;;;;;;5063094;28;20179;-75
2022/12/26 11:17:51;;;;;;;9.02;1.60;;;8.60;99.90;;;;;;5016773;28;20541;-74
2022/12/26 11:20:16;;;;;;;11.98;2.10;;;8.60;99.90;;;;;;5022584;28;20188;-74
2022/12/26 11:22:43;;;;;;;10.70;1.80;;;8.60;99.90;;;;;;5032072;28;20207;-75
2022/12/26 11:25:09;;;;;;;13.98;1.60;;;8.60;99.90;;;;;;5037874;28;20234;-75
2022/12/26 11:27:41;;;;;;;15.73;2.60;;;8.60;99.90;;;;;;5031452;28;20620;-76
2022/12/26 11:30:13;;;;;;;8.40;1.45;;;8.70;99.90;;;;;;5026110;28;20187;-81
2022/12/26 11:32:46;;;;;;;8.32;1.60;;;8.70;99.90;;;;;;5024411;28;20204;-75
2022/12/26 11:35:21;;;;;;;10.32;1.70;;;8.70;99.90;;;;;;5020423;28;20215;-75
2022/12/26 11:37:51;;;;;;;12.27;1.63;;;8.60;99.90;;;;;;5013124;28;20184;-75
2022/12/26 11:40:28;;;;;;;7.85;1.63;;;8.60;99.90;;;;;;5036173;28;20180;-78
2022/12/26 11:42:57;;;;;;;9.60;1.85;;;8.60;99.90;;;;;;5035939;28;20202;-75
2022/12/26 11:45:29;;;;;;;23.05;2.33;;;8.70;99.90;;;;;;5032472;28;20172;-74
2022/12/26 11:47:56;;;;;;;12.73;1.45;;;8.60;99.90;;;;;;5034512;28;20234;-78
2022/12/26 11:50:26;;;;;;;15.88;2.47;;;8.60;99.90;;;;;;5038916;28;20196;-79
2022/12/26 11:52:55;;;;;;;13.70;1.85;;;8.60;99.90;;;;;;5034654;28;20262;-74
2022/12/26 11:55:23;;;;;;;13.27;1.92;;;8.60;99.90;;;;;;5035294;28;20620;-75
2022/12/26 11:58:00;;;;;;;11.30;1.50;;;8.60;99.90;;;;;;5035187;28;20267;-74
2022/12/26 12:00:28;;;;;;;15.82;2.38;;;8.60;99.90;;;;;;5031379;28;21219;-75
2022/12/26 12:02:53;;;;;;;10.55;1.92;;;8.60;99.90;;;;;;5052817;28;20188;-74
2022/12/26 12:05:37;;;;;;;12.07;1.90;;;8.60;99.90;;;;;;5036871;28;20179;-75
2022/12/26 12:08:21;;;;;;;13.35;1.92;;;8.50;99.90;;;;;;5030601;28;20262;-76
2022/12/26 12:10:58;;;;;;;14.48;2.30;;;8.50;99.90;;;;;;5030197;28;20175;-75
2022/12/26 12:13:37;;;;;;;12.65;2.47;;;8.50;99.90;;;;;;5044497;28;20599;-76
2022/12/26 12:16:32;;;;;;;18.17;2.33;;;8.50;99.90;;;;;;5032956;28;20199;-75
2022/12/26 12:19:29;;;;;;;15.52;2.33;;;8.50;99.90;;;;;;5030709;28;20175;-76
2022/12/26 12:22:33;;;;;;;14.45;2.78;;;8.50;99.90;;;;;;5021230;28;20180;-73
2022/12/26 12:25:23;;;;;;;11.27;1.77;;;8.50;99.90;;;;;;5025353;28;20585;-75
2022/12/26 12:28:29;;;;;;;14.30;2.25;;;8.60;99.90;;;;;;5034170;28;20322;-75
2022/12/26 12:31:19;;;;;;;15.85;2.60;;;8.50;99.90;;;;;;5029672;28;20229;-75
2022/12/26 12:34:06;;;;;;;18.25;2.47;;;8.50;99.90;;;;;;5034200;28;20280;-74
2022/12/26 12:37:00;;;;;;;14.48;2.28;;;8.50;99.90;;;;;;5029900;28;20263;-73
2022/12/26 12:39:44;;;;;;;13.30;2.60;;;8.60;99.90;;;;;;5038953;28;20264;-74
2022/12/26 12:42:25;;;;;;;18.15;2.38;;;8.60;99.90;;;;;;5031292;28;20188;-73
2022/12/26 12:44:54;;;;;;;16.38;2.65;;;8.70;99.90;;;;;;5029186;28;20262;-75
2022/12/26 12:47:31;;;;;;;14.57;2.67;;;8.80;99.90;;;;;;5034508;28;20206;-75
2022/12/26 12:50:19;;;;;;;17.38;2.30;;;8.90;99.90;;;;;;5032767;28;20184;-75
2022/12/26 12:52:48;;;;;;;17.92;2.90;;;9.10;99.90;;;;;;5030056;28;20373;-75
2022/12/26 12:55:20;;;;;;;18.58;2.78;;;9.20;99.90;;;;;;5028583;28;20206;-75
2022/12/26 12:57:58;;;;;;;22.00;2.72;;;9.30;99.90;;;;;;5033851;28;20184;-75
2022/12/26 13:00:31;;;;;;;15.25;2.40;;;9.30;99.90;;;;;;5038323;28;20199;-75
2022/12/26 13:03:36;;;;;;;17.83;4.63;;;9.40;99.90;;;;;;5034539;28;20259;-76
2022/12/26 13:06:09;;;;;;;18.65;2.90;;;9.60;99.90;;;;;;5041568;28;20180;-76
2022/12/26 13:08:53;;;;;;;17.55;2.72;;;9.70;99.90;;;;;;5034507;28;20176;-77
2022/12/26 13:11:30;;;;;;;17.17;2.72;;;9.80;99.90;;;;;;5047342;28;20177;-75
2022/12/26 13:14:01;;;;;;;20.65;2.83;;;9.90;99.90;;;;;;5023123;28;20184;-76
2022/12/26 13:16:34;;;;;;;19.08;2.47;;;9.90;99.90;;;;;;5036083;28;20172;-75
2022/12/26 13:19:06;;;;;;;16.02;2.22;;;10.00;99.90;;;;;;5032884;28;20208;-75
2022/12/26 13:21:36;;;;;;;15.43;3.13;;;10.00;99.90;;;;;;5041841;28;20231;-75
2022/12/26 13:24:22;;;;;;;11.80;2.47;;;10.00;99.90;;;;;;5029775;28;20183;-76
2022/12/26 13:27:21;;;;;;;14.90;2.67;;;10.10;99.90;;;;;;5051475;28;20179;-80
2022/12/26 13:29:48;;;;;;;13.05;2.63;;;10.10;99.90;;;;;;5035230;28;20176;-80
2022/12/26 13:32:23;;;;;;;22.92;2.63;;;10.20;99.90;;;;;;5062056;28;20648;-81
2022/12/26 13:34:52;;;;;;;15.90;2.55;;;10.20;99.90;;;;;;5030864;28;20180;-80
2022/12/26 13:37:36;;;;;;;14.15;2.88;;;10.30;99.90;;;;;;5045363;28;20180;-78
2022/12/26 13:40:12;;;;;;;16.35;2.50;;;10.50;99.90;;;;;;5028293;28;20172;-80
2022/12/26 13:45:51;;;;;;;15.48;2.78;;;10.90;99.90;;;;;;5032931;28;20455;-84
2022/12/26 13:48:17;;;;;;;9.40;2.33;;;11.10;99.90;;;;;;5038163;28;20183;-80
2022/12/26 13:51:00;;;;;;;19.27;3.17;;;11.00;99.90;;;;;;5024195;28;20188;-81
2022/12/26 13:53:29;;;;;;;15.52;3.05;;;10.70;99.90;;;;;;5023897;28;20209;-80
2022/12/26 13:56:01;;;;;;;14.10;2.58;;;10.40;99.90;;;;;;5047401;28;20184;-79
2022/12/26 13:58:38;;;;;;;18.83;2.60;;;10.20;99.90;;;;;;5033585;28;20558;-81
2022/12/26 14:01:26;;;;;;;14.65;2.67;;;10.00;99.90;;;;;;5043727;28;20242;-80
2022/12/26 14:03:54;;;;;;;13.23;2.30;;;9.90;99.90;;;;;;5032164;28;20286;-83
2022/12/26 14:06:49;;;;;;;21.25;2.72;;;9.90;99.90;;;;;;5049360;28;20201;-79
2022/12/26 14:09:32;;;;;;;11.00;2.00;;;10.30;99.90;;;;;;5063339;28;20188;-80
2022/12/26 14:12:19;;;;;;;11.30;2.70;;;10.80;99.90;;;;;;5040715;28;20196;-79
2022/12/26 14:14:54;;;;;;;17.48;2.67;;;11.20;99.90;;;;;;5035959;28;20188;-79
2022/12/26 14:17:53;;;;;;;17.05;3.03;;;11.50;99.90;;;;;;5023627;28;20176;-80
2022/12/26 14:20:37;;;;;;;11.70;2.55;;;11.70;99.90;;;;;;5018304;28;20183;-83
2022/12/26 14:23:16;;;;;;;17.85;3.05;;;11.80;99.90;;;;;;5027262;28;20947;-81
2022/12/26 14:26:00;;;;;;;17.13;3.00;;;11.80;99.90;;;;;;5024330;28;20184;-83
2022/12/26 14:29:16;;;;;;;15.07;2.83;;;11.80;99.90;;;;;;5004829;28;20183;-81
2022/12/26 14:31:54;;;;;;;21.08;3.15;;;11.40;99.90;;;;;;4943910;28;20210;-84
2022/12/26 14:34:40;;;;;;;12.85;2.72;;;11.10;99.90;;;;;;4935590;28;20186;-80
2022/12/26 14:37:21;;;;;;;14.57;2.83;;;10.70;99.90;;;;;;5008428;28;20199;-80
2022/12/26 14:40:05;;;;;;;18.45;2.85;;;10.40;99.90;;;;;;5029886;28;20226;-79
2022/12/26 14:45:27;;;;;;;14.77;3.05;;;9.70;99.90;;;;;;5022068;28;21088;-80
2022/12/26 14:47:53;;;;;;;17.67;3.28;;;9.40;99.90;;;;;;5063676;28;20180;-80
2022/12/26 14:50:31;;;;;;;15.75;3.05;;;9.20;99.90;;;;;;5030220;28;20527;-83
2022/12/26 14:53:28;;;;;;;14.57;2.72;;;9.10;99.90;;;;;;5046865;28;20211;-80
2022/12/26 14:56:06;;;;;;;22.42;3.85;;;8.90;99.90;;;;;;5037582;28;20183;-81
2022/12/26 14:59:20;;;;;;;17.85;3.38;;;8.80;99.90;;;;;;5016912;28;20184;-78
2022/12/26 15:01:48;;;;;;;19.52;3.55;;;8.70;99.90;;;;;;5028896;28;20295;-80
2022/12/26 15:04:35;;;;;;;20.25;3.10;;;8.60;99.90;;;;;;5063027;28;20266;-81
2022/12/26 15:07:20;;;;;;;15.82;3.10;;;8.60;99.90;;;;;;5027976;28;20186;-83
2022/12/26 15:10:17;;;;;;;19.98;3.00;;;8.60;99.90;;;;;;5024853;28;20286;-83
2022/12/26 15:12:52;;;;;;;19.38;3.13;;;8.50;99.90;;;;;;5043659;28;20203;-78
2022/12/26 15:15:59;;;;;;;14.27;3.40;;;8.40;99.90;;;;;;5035465;28;20302;-79
2022/12/26 15:18:54;;;;;;;14.35;3.20;;;8.40;99.90;;;;;;4972117;28;20186;-81
2022/12/26 15:21:20;;;;;;;15.88;3.05;;;8.30;99.90;;;;;;5064349;28;20180;-84
2022/12/26 15:24:22;;;;;;;18.38;3.05;;;8.30;99.90;;;;;;5044061;28;20194;-81